createdAt,value
2023-03-26T00:01:23.711Z,2.37
2023-03-26T00:03:57.979Z,2.16
2023-03-26T00:06:36.706Z,2.10
2023-03-26T00:09:04.830Z,2.08
2023-03-26T00:11:31.559Z,2.04
2023-03-26T00:13:58.902Z,2.05
2023-03-26T00:16:29.847Z,2.05
2023-03-26T00:18:57.812Z,2.08
2023-03-26T00:21:28.122Z,1.78
2023-03-26T00:23:58.610Z,1.93
2023-03-26T00:26:27.169Z,2.03
2023-03-26T00:28:54.716Z,2.28
2023-03-26T00:31:22.060Z,2.21
2023-03-26T00:33:54.315Z,2.21
2023-03-26T00:36:22.811Z,2.21
2023-03-26T00:38:49.616Z,2.19
2023-03-26T00:41:22.659Z,1.67
2023-03-26T00:43:51.985Z,1.71
2023-03-26T00:46:18.793Z,1.59
2023-03-26T00:48:46.716Z,1.69
2023-03-26T00:51:15.508Z,1.77
2023-03-26T00:53:45.003Z,1.92
2023-03-26T00:56:12.177Z,1.91
2023-03-26T00:58:38.959Z,2.04
2023-03-26T01:01:08.825Z,2.03
2023-03-26T01:03:38.259Z,2.04
2023-03-26T01:06:22.713Z,1.75
2023-03-26T01:08:51.181Z,1.67
2023-03-26T01:11:23.940Z,1.61
2023-03-26T01:14:08.630Z,1.54
2023-03-26T01:16:38.160Z,1.57
2023-03-26T01:19:22.830Z,1.57
2023-03-26T01:21:49.659Z,1.63
2023-03-26T01:24:16.363Z,1.63
2023-03-26T01:26:52.816Z,1.55
2023-03-26T01:29:52.851Z,1.53
2023-03-26T01:32:44.192Z,1.52
2023-03-26T01:35:27.161Z,1.44
2023-03-26T01:38:24.680Z,1.34
2023-03-26T01:41:07.041Z,1.26
2023-03-26T01:43:46.029Z,1.25
2023-03-26T01:46:15.924Z,1.23
2023-03-26T01:48:44.822Z,1.12
2023-03-26T01:51:13.243Z,1.16
2023-03-26T01:53:46.102Z,1.20
2023-03-26T01:56:25.968Z,1.22
2023-03-26T01:59:22.290Z,1.20
2023-03-26T02:02:11.705Z,1.20
2023-03-26T02:04:44.641Z,1.17
2023-03-26T02:07:20.915Z,1.16
2023-03-26T02:09:55.384Z,1.13
2023-03-26T02:12:23.282Z,1.05
2023-03-26T02:14:50.612Z,0.84
2023-03-26T02:17:19.149Z,0.84
2023-03-26T02:19:45.750Z,0.78
2023-03-26T02:22:15.716Z,0.57
2023-03-26T02:24:45.086Z,0.54
2023-03-26T02:27:12.416Z,0.61
2023-03-26T02:29:41.029Z,0.59
2023-03-26T02:32:14.018Z,0.60
2023-03-26T02:34:41.626Z,0.58
2023-03-26T02:37:09.789Z,0.43
2023-03-26T02:39:38.588Z,0.54
2023-03-26T02:42:21.307Z,0.46
2023-03-26T02:44:49.607Z,0.41
2023-03-26T02:47:19.480Z,0.49
2023-03-26T02:49:52.076Z,0.56
2023-03-26T02:52:29.696Z,0.63
2023-03-26T02:54:58.329Z,0.64
2023-03-26T02:57:26.264Z,0.64
2023-03-26T03:00:17.098Z,0.61
2023-03-26T03:03:04.934Z,0.60
2023-03-26T03:05:32.981Z,0.71
2023-03-26T03:08:28.496Z,0.41
2023-03-26T03:11:18.211Z,0.24
2023-03-26T03:13:47.088Z,0.30
2023-03-26T03:16:25.844Z,0.36
2023-03-26T03:18:58.054Z,0.34
2023-03-26T03:21:33.528Z,0.40
2023-03-26T03:24:00.649Z,0.40
2023-03-26T03:26:30.910Z,0.47
2023-03-26T03:29:04.576Z,0.33
2023-03-26T03:31:32.975Z,0.15
2023-03-26T03:34:03.834Z,0.15
2023-03-26T03:36:38.384Z,0.16
2023-03-26T03:39:15.580Z,0.18
2023-03-26T03:41:42.503Z,0.20
2023-03-26T03:44:13.752Z,0.21
2023-03-26T03:46:40.788Z,0.28
2023-03-26T03:49:07.487Z,0.32
2023-03-26T03:51:37.324Z,0.24
2023-03-26T03:54:17.974Z,0.28
2023-03-26T03:56:49.244Z,0.37
2023-03-26T03:59:16.045Z,0.43
2023-03-26T04:01:46.720Z,0.48
2023-03-26T04:04:24.726Z,0.47
2023-03-26T04:06:57.710Z,0.43
2023-03-26T04:09:27.730Z,0.42
2023-03-26T04:11:58.223Z,0.42
2023-03-26T04:14:51.101Z,0.35
2023-03-26T04:17:21.887Z,0.52
2023-03-26T04:19:52.914Z,0.56
2023-03-26T04:22:20.000Z,0.62
2023-03-26T04:24:56.816Z,0.66
2023-03-26T04:27:41.777Z,0.66
2023-03-26T04:30:44.981Z,0.47
2023-03-26T04:33:34.818Z,0.36
2023-03-26T04:36:03.205Z,0.37
2023-03-26T04:38:42.123Z,0.38
2023-03-26T04:41:12.457Z,0.56
2023-03-26T04:43:50.813Z,0.64
2023-03-26T04:46:33.457Z,0.65
2023-03-26T04:49:08.218Z,0.47
2023-03-26T04:51:42.005Z,0.38
2023-03-26T04:54:24.563Z,0.29
2023-03-26T04:57:04.242Z,0.26
2023-03-26T04:59:38.116Z,0.13
2023-03-26T05:02:09.724Z,0.09
2023-03-26T05:04:50.059Z,0.05
2023-03-26T05:07:21.269Z,0.02
2023-03-26T05:09:54.746Z,0.00
2023-03-26T05:12:37.235Z,-0.06
2023-03-26T05:15:09.514Z,-0.08
2023-03-26T05:17:59.141Z,-0.08
2023-03-26T05:20:39.170Z,-0.09
2023-03-26T05:23:08.158Z,-0.04
2023-03-26T05:25:41.676Z,-0.17
2023-03-26T05:28:15.975Z,-0.05
2023-03-26T05:30:54.785Z,0.03
2023-03-26T05:33:24.522Z,0.13
2023-03-26T05:36:09.670Z,0.17
2023-03-26T05:38:37.160Z,0.28
2023-03-26T05:41:08.364Z,0.58
2023-03-26T05:43:37.637Z,0.76
2023-03-26T05:46:12.079Z,0.83
2023-03-26T05:48:39.389Z,0.92
2023-03-26T05:51:07.009Z,0.83
2023-03-26T05:53:34.801Z,0.81
2023-03-26T05:56:30.461Z,1.00
2023-03-26T05:59:26.591Z,1.08
2023-03-26T06:02:11.774Z,1.16
2023-03-26T06:05:12.490Z,1.20
2023-03-26T06:07:45.256Z,1.26
2023-03-26T06:10:19.986Z,1.38
2023-03-26T06:12:47.106Z,1.50
2023-03-26T06:15:14.151Z,1.44
2023-03-26T06:17:58.910Z,1.34
2023-03-26T06:20:47.041Z,1.32
2023-03-26T06:23:23.421Z,1.40
2023-03-26T06:26:05.908Z,1.44
2023-03-26T06:28:49.453Z,1.57
2023-03-26T06:31:35.287Z,1.70
2023-03-26T06:34:20.614Z,1.83
2023-03-26T06:36:48.855Z,1.96
2023-03-26T06:39:16.092Z,2.07
2023-03-26T06:41:54.476Z,2.40
2023-03-26T06:44:39.550Z,2.62
2023-03-26T06:47:24.960Z,2.65
2023-03-26T06:50:11.919Z,2.87
2023-03-26T06:52:58.954Z,3.02
2023-03-26T06:55:41.828Z,3.19
2023-03-26T06:58:38.564Z,3.45
2023-03-26T07:01:24.210Z,3.67
2023-03-26T07:04:09.658Z,3.52
2023-03-26T07:06:54.979Z,3.40
2023-03-26T07:09:40.830Z,3.28
2023-03-26T07:12:43.383Z,3.41
2023-03-26T07:15:29.034Z,3.26
2023-03-26T07:18:11.664Z,3.10
2023-03-26T07:20:42.425Z,2.89
2023-03-26T07:23:11.736Z,2.89
2023-03-26T07:26:36.431Z,3.10
2023-03-26T07:29:22.482Z,3.35
2023-03-26T07:32:23.999Z,3.42
2023-03-26T07:35:29.412Z,3.34
2023-03-26T07:38:17.686Z,3.53
2023-03-26T07:41:33.350Z,3.75
2023-03-26T07:44:41.590Z,4.04
2023-03-26T07:47:26.421Z,4.05
2023-03-26T07:50:19.213Z,4.53
2023-03-26T07:53:00.114Z,4.96
2023-03-26T07:55:47.668Z,5.07
2023-03-26T07:59:06.687Z,5.33
2023-03-26T08:02:29.539Z,5.51
2023-03-26T08:05:19.789Z,5.39
2023-03-26T08:08:18.135Z,5.60
2023-03-26T08:11:09.686Z,5.90
2023-03-26T08:14:11.207Z,6.11
2023-03-26T08:16:51.344Z,6.11
2023-03-26T08:19:30.876Z,6.07
2023-03-26T08:22:26.351Z,6.19
2023-03-26T08:25:04.356Z,6.35
2023-03-26T08:27:38.089Z,6.62
2023-03-26T08:30:14.639Z,6.55
2023-03-26T08:32:41.894Z,6.54
2023-03-26T08:35:13.471Z,6.63
2023-03-26T08:37:40.553Z,6.58
2023-03-26T08:40:09.676Z,6.86
2023-03-26T08:43:24.597Z,7.10
2023-03-26T08:46:11.329Z,7.33
2023-03-26T08:48:54.329Z,7.55
2023-03-26T08:51:24.155Z,7.66
2023-03-26T08:54:09.327Z,7.63
2023-03-26T08:56:54.199Z,7.71
2023-03-26T08:59:41.950Z,7.85
2023-03-26T09:02:51.501Z,8.09
2023-03-26T09:05:47.591Z,8.33
2023-03-26T09:08:36.806Z,8.49
2023-03-26T09:11:25.006Z,8.54
2023-03-26T09:14:30.275Z,8.77
2023-03-26T09:16:59.867Z,8.94
2023-03-26T09:20:02.913Z,9.13
2023-03-26T09:23:05.672Z,9.35
2023-03-26T09:26:09.477Z,9.61
2023-03-26T09:28:54.550Z,9.77
2023-03-26T09:31:51.638Z,10.09
2023-03-26T09:34:43.324Z,10.51
2023-03-26T09:37:29.067Z,10.94
2023-03-26T09:40:18.697Z,11.42
2023-03-26T09:42:45.518Z,11.84
2023-03-26T09:45:31.473Z,11.71
2023-03-26T09:48:24.058Z,12.33
2023-03-26T09:51:10.787Z,12.90
2023-03-26T09:53:59.266Z,13.23
2023-03-26T09:57:14.136Z,13.69
2023-03-26T09:59:43.592Z,13.58
2023-03-26T10:02:16.580Z,13.70
2023-03-26T10:05:05.006Z,14.21
2023-03-26T10:08:01.564Z,14.16
2023-03-26T10:10:49.499Z,13.91
2023-03-26T10:13:28.542Z,13.25
2023-03-26T10:16:25.501Z,13.20
2023-03-26T10:18:52.195Z,13.62
2023-03-26T10:21:35.993Z,13.63
2023-03-26T10:24:11.538Z,13.84
2023-03-26T10:27:16.496Z,13.82
2023-03-26T10:29:49.072Z,14.15
2023-03-26T10:32:15.785Z,14.35
2023-03-26T10:35:27.474Z,14.30
2023-03-26T10:38:32.236Z,14.41
2023-03-26T10:41:05.984Z,14.79
2023-03-26T10:44:08.846Z,15.17
2023-03-26T10:47:10.493Z,15.80
2023-03-26T10:50:22.622Z,16.49
2023-03-26T10:53:02.162Z,16.77
2023-03-26T10:55:35.315Z,17.21
2023-03-26T10:58:11.006Z,17.52
2023-03-26T11:00:43.520Z,17.70
2023-03-26T11:03:23.156Z,17.29
2023-03-26T11:06:11.033Z,17.75
2023-03-26T11:08:41.064Z,18.29
2023-03-26T11:11:32.709Z,18.44
2023-03-26T11:14:13.689Z,17.85
2023-03-26T11:16:58.658Z,18.24
2023-03-26T11:19:38.353Z,18.83
2023-03-26T11:22:36.451Z,19.18
2023-03-26T11:25:36.066Z,18.91
2023-03-26T11:28:18.328Z,18.96
2023-03-26T11:30:47.998Z,18.04
2023-03-26T11:33:24.177Z,17.02
2023-03-26T11:35:57.403Z,16.76
2023-03-26T11:38:39.107Z,16.66
2023-03-26T11:41:15.891Z,17.28
2023-03-26T11:44:05.953Z,17.45
2023-03-26T11:46:39.023Z,18.06
2023-03-26T11:49:12.509Z,17.89
2023-03-26T11:51:41.334Z,18.19
2023-03-26T11:54:11.634Z,18.48
2023-03-26T11:57:04.864Z,18.85
2023-03-26T12:00:18.430Z,18.34
2023-03-26T12:02:46.680Z,18.70
2023-03-26T12:05:24.943Z,18.30
2023-03-26T12:07:58.036Z,17.94
2023-03-26T12:10:33.295Z,17.94
2023-03-26T12:13:05.948Z,18.41
2023-03-26T12:15:32.802Z,18.73
2023-03-26T12:18:19.972Z,18.46
2023-03-26T12:20:46.994Z,18.43
2023-03-26T12:23:52.552Z,18.66
2023-03-26T12:26:41.695Z,18.11
2023-03-26T12:29:12.619Z,18.43
2023-03-26T12:31:56.129Z,18.41
2023-03-26T12:34:35.532Z,18.38
2023-03-26T12:37:05.134Z,18.16
2023-03-26T12:40:09.141Z,18.15
2023-03-26T12:44:47.043Z,18.41
2023-03-26T12:45:24.242Z,18.26
2023-03-26T12:48:01.705Z,17.88
2023-03-26T12:50:44.700Z,17.44
2023-03-26T12:53:41.160Z,17.48
2023-03-26T12:56:29.151Z,17.21
2023-03-26T12:59:05.587Z,17.08
2023-03-26T13:01:51.227Z,16.76
2023-03-26T13:05:02.285Z,16.87
2023-03-26T13:08:03.021Z,17.03
2023-03-26T13:10:41.146Z,17.05
2023-03-26T13:13:29.490Z,16.50
2023-03-26T13:16:29.141Z,16.67
2023-03-26T13:18:58.858Z,16.80
2023-03-26T13:21:49.139Z,16.94
2023-03-26T13:24:43.492Z,16.86
2023-03-26T13:27:48.823Z,16.36
2023-03-26T13:30:28.529Z,16.34
2023-03-26T13:32:59.531Z,16.33
2023-03-26T13:35:34.097Z,16.36
2023-03-26T13:38:15.411Z,16.38
2023-03-26T13:40:47.884Z,16.72
2023-03-26T13:43:24.926Z,16.61
2023-03-26T13:45:57.019Z,16.69
2023-03-26T13:48:28.412Z,16.88
2023-03-26T13:51:05.613Z,17.05
2023-03-26T13:53:41.970Z,16.99
2023-03-26T13:56:14.826Z,16.67
2023-03-26T13:58:55.561Z,16.57
2023-03-26T14:01:50.573Z,16.38
2023-03-26T14:04:32.582Z,16.17
2023-03-26T14:07:18.070Z,16.36
2023-03-26T14:10:09.623Z,16.34
2023-03-26T14:13:07.466Z,16.43
2023-03-26T14:15:42.772Z,16.36
2023-03-26T14:18:37.151Z,16.29
2023-03-26T14:21:19.412Z,16.23
2023-03-26T14:24:13.916Z,16.03
2023-03-26T14:27:15.604Z,16.02
2023-03-26T14:30:22.070Z,16.09
2023-03-26T14:32:52.325Z,16.11
2023-03-26T14:35:35.629Z,16.18
2023-03-26T14:38:18.186Z,16.15
2023-03-26T14:41:20.346Z,16.15
2023-03-26T14:44:13.140Z,16.06
2023-03-26T14:47:00.215Z,16.03
2023-03-26T14:49:54.623Z,16.03
2023-03-26T14:52:41.503Z,15.94
2023-03-26T14:55:21.918Z,15.89
2023-03-26T14:58:27.941Z,15.99
2023-03-26T15:01:26.839Z,16.08
2023-03-26T15:04:12.093Z,16.06
2023-03-26T15:06:57.440Z,16.10
2023-03-26T15:10:02.517Z,16.00
2023-03-26T15:12:50.963Z,15.82
2023-03-26T15:15:39.517Z,15.80
2023-03-26T15:18:38.498Z,15.70
2023-03-26T15:24:53.173Z,15.56
2023-03-26T15:27:26.809Z,15.49
2023-03-26T15:30:21.335Z,15.41
2023-03-26T15:33:26.403Z,15.37
2023-03-26T15:35:53.813Z,15.30
2023-03-26T15:38:28.385Z,15.25
2023-03-26T15:41:32.429Z,15.20
2023-03-26T15:46:37.701Z,15.03
2023-03-26T15:49:16.647Z,15.02
2023-03-26T15:51:59.079Z,14.95
2023-03-26T15:54:47.993Z,14.91
2023-03-26T15:57:39.219Z,14.92
2023-03-26T16:00:26.559Z,14.84
2023-03-26T16:03:10.110Z,14.80
2023-03-26T16:06:02.280Z,14.71
2023-03-26T16:08:38.713Z,14.66
2023-03-26T16:11:12.607Z,14.59
2023-03-26T16:13:42.257Z,14.59
2023-03-26T16:16:14.761Z,14.59
2023-03-26T16:18:58.454Z,14.57
2023-03-26T16:21:37.172Z,14.50
2023-03-26T16:24:32.833Z,14.35
2023-03-26T16:27:08.189Z,14.21
2023-03-26T16:30:00.926Z,14.05
2023-03-26T16:32:33.462Z,13.93
2023-03-26T16:35:03.461Z,13.81
2023-03-26T16:37:36.439Z,13.60
2023-03-26T16:40:22.292Z,13.42
2023-03-26T16:42:55.434Z,13.33
2023-03-26T16:46:04.130Z,13.27
2023-03-26T16:49:09.127Z,13.09
2023-03-26T16:52:06.779Z,12.97
2023-03-26T16:54:51.460Z,12.89
2023-03-26T16:57:28.448Z,12.82
2023-03-26T17:00:16.473Z,12.67
2023-03-26T17:03:15.542Z,12.57
2023-03-26T17:05:54.376Z,12.52
2023-03-26T17:08:36.058Z,12.44
2023-03-26T17:11:17.674Z,12.35
2023-03-26T17:14:24.048Z,12.01
2023-03-26T17:17:27.543Z,11.50
2023-03-26T17:20:08.557Z,11.27
2023-03-26T17:22:43.952Z,11.08
2023-03-26T17:25:40.061Z,10.67
2023-03-26T17:28:16.212Z,10.29
2023-03-26T17:30:46.605Z,10.38
2023-03-26T17:33:28.193Z,10.40
2023-03-26T17:36:21.390Z,10.39
2023-03-26T17:38:49.192Z,10.34
2023-03-26T17:41:55.348Z,10.33
2023-03-26T17:44:36.106Z,10.19
2023-03-26T17:47:06.599Z,10.21
2023-03-26T17:49:35.384Z,9.95
2023-03-26T17:52:15.657Z,9.95
2023-03-26T17:54:49.722Z,9.90
2023-03-26T17:57:33.828Z,9.90
2023-03-26T18:00:02.256Z,9.77
2023-03-26T18:02:42.332Z,9.66
2023-03-26T18:05:12.695Z,9.59
2023-03-26T18:08:16.902Z,9.59
2023-03-26T18:11:08.023Z,9.61
2023-03-26T18:13:58.509Z,9.49
2023-03-26T18:16:31.961Z,9.49
2023-03-26T18:19:05.144Z,9.55
2023-03-26T18:21:38.241Z,9.54
2023-03-26T18:24:07.812Z,9.31
2023-03-26T18:26:53.896Z,9.42
2023-03-26T18:29:35.309Z,9.46
2023-03-26T18:32:09.554Z,9.50
2023-03-26T18:34:49.866Z,9.49
2023-03-26T18:37:22.937Z,9.47
2023-03-26T18:40:14.565Z,9.37
2023-03-26T18:43:00.872Z,9.29
2023-03-26T18:45:37.369Z,9.38
2023-03-26T18:48:20.671Z,9.41
2023-03-26T18:51:05.192Z,9.47
2023-03-26T18:53:45.917Z,9.29
2023-03-26T18:56:28.606Z,9.13
2023-03-26T18:58:58.907Z,8.97
2023-03-26T19:01:30.755Z,8.90
2023-03-26T19:03:59.852Z,8.81
2023-03-26T19:06:26.881Z,8.81
2023-03-26T19:08:54.578Z,8.74
2023-03-26T19:11:21.632Z,8.70
2023-03-26T19:14:03.397Z,8.66
2023-03-26T19:16:37.573Z,8.64
2023-03-26T19:19:07.854Z,8.60
2023-03-26T19:21:36.309Z,8.57
2023-03-26T19:24:05.443Z,8.53
2023-03-26T19:26:32.636Z,8.51
2023-03-26T19:29:00.750Z,8.48
2023-03-26T19:31:32.736Z,8.41
2023-03-26T19:34:02.268Z,8.40
2023-03-26T19:36:34.577Z,8.31
2023-03-26T19:39:02.097Z,8.34
2023-03-26T19:41:38.769Z,8.31
2023-03-26T19:44:26.781Z,8.29
2023-03-26T19:47:05.475Z,8.26
2023-03-26T19:49:42.277Z,8.26
2023-03-26T19:52:17.627Z,8.16
2023-03-26T19:55:03.848Z,8.06
2023-03-26T19:57:32.978Z,8.06
2023-03-26T20:00:00.655Z,8.01
2023-03-26T20:02:27.645Z,8.03
2023-03-26T20:04:54.495Z,7.97
2023-03-26T20:07:35.825Z,7.95
2023-03-26T20:10:05.594Z,7.89
2023-03-26T20:12:33.024Z,7.93
2023-03-26T20:15:00.916Z,7.96
2023-03-26T20:17:30.958Z,7.97
2023-03-26T20:19:57.923Z,7.92
2023-03-26T20:22:25.221Z,7.95
2023-03-26T20:24:52.705Z,7.92
2023-03-26T20:27:19.520Z,7.85
2023-03-26T20:29:46.556Z,7.91
2023-03-26T20:32:23.643Z,7.90
2023-03-26T20:34:51.708Z,7.87
2023-03-26T20:37:18.974Z,7.86
2023-03-26T20:39:46.426Z,7.87
2023-03-26T20:42:15.451Z,7.84
2023-03-26T20:44:43.107Z,7.78
2023-03-26T20:47:11.452Z,7.74
2023-03-26T20:49:38.457Z,7.66
2023-03-26T20:52:05.304Z,7.67
2023-03-26T20:54:32.093Z,7.63
2023-03-26T20:56:58.896Z,7.57
2023-03-26T20:59:27.725Z,7.47
2023-03-26T21:01:56.883Z,7.41
2023-03-26T21:04:26.267Z,7.37
2023-03-26T21:07:07.170Z,7.37
2023-03-26T21:09:44.813Z,7.30
2023-03-26T21:12:32.215Z,7.24
2023-03-26T21:14:59.595Z,7.21
2023-03-26T21:20:16.738Z,7.15
2023-03-26T21:23:07.561Z,7.14
2023-03-26T21:25:53.117Z,7.05
2023-03-26T21:28:35.839Z,7.03
2023-03-26T21:31:14.857Z,6.97
2023-03-26T21:33:42.597Z,6.92
2023-03-26T21:36:10.865Z,6.92
2023-03-26T21:38:38.762Z,6.87
2023-03-26T21:41:05.864Z,6.96
2023-03-26T21:43:32.635Z,7.05
2023-03-26T21:45:59.668Z,7.05
2023-03-26T21:48:28.435Z,7.11
2023-03-26T21:50:55.589Z,7.01
2023-03-26T21:53:24.147Z,6.99
2023-03-26T21:56:06.222Z,7.00
2023-03-26T21:58:51.582Z,6.99
2023-03-26T22:01:30.529Z,6.95
2023-03-26T22:03:57.251Z,6.97
2023-03-26T22:06:43.408Z,6.90
2023-03-26T22:09:12.819Z,6.93
2023-03-26T22:11:42.073Z,6.93
2023-03-26T22:14:09.384Z,6.85
2023-03-26T22:16:35.983Z,6.85
2023-03-26T22:19:02.877Z,6.92
2023-03-26T22:21:29.782Z,6.82
2023-03-26T22:23:56.533Z,6.77
2023-03-26T22:26:24.745Z,6.69
2023-03-26T22:28:51.813Z,6.77
2023-03-26T22:31:18.593Z,6.78
2023-03-26T22:33:45.389Z,6.72
2023-03-26T22:36:23.485Z,6.80
2023-03-26T22:38:54.435Z,6.56
2023-03-26T22:41:22.179Z,6.61
2023-03-26T22:43:52.053Z,6.65
2023-03-26T22:46:19.457Z,6.51
2023-03-26T22:48:48.236Z,6.58
2023-03-26T22:51:16.118Z,6.58
2023-03-26T22:53:43.652Z,6.60
2023-03-26T22:56:11.702Z,6.57
2023-03-26T22:58:38.387Z,6.53
2023-03-26T23:01:09.512Z,6.56
2023-03-26T23:03:37.228Z,6.55
2023-03-26T23:06:07.186Z,6.54
2023-03-26T23:08:35.108Z,6.52
2023-03-26T23:11:02.100Z,6.51
2023-03-26T23:13:28.870Z,6.52
2023-03-26T23:15:59.657Z,6.52
2023-03-26T23:18:26.441Z,6.52
2023-03-26T23:20:58.582Z,6.46
2023-03-26T23:23:28.768Z,6.41
2023-03-26T23:26:04.610Z,6.42
2023-03-26T23:28:33.313Z,6.42
2023-03-26T23:31:02.631Z,6.38
2023-03-26T23:33:31.939Z,6.27
2023-03-26T23:36:00.336Z,6.32
2023-03-26T23:38:29.173Z,6.28
2023-03-26T23:41:15.306Z,6.37
2023-03-26T23:43:53.414Z,6.29
2023-03-26T23:46:34.697Z,6.22
2023-03-26T23:49:04.745Z,6.18
2023-03-26T23:51:32.373Z,6.09
2023-03-26T23:54:00.281Z,6.11
2023-03-26T23:56:30.139Z,6.06
2023-03-26T23:58:57.202Z,6.08
